createdAt,value
2022-11-15T00:03:00.297Z,1.53
2022-11-15T00:06:06.104Z,1.51
2022-11-15T00:09:11.825Z,1.50
2022-11-15T00:12:17.731Z,1.47
2022-11-15T00:15:23.763Z,1.45
2022-11-15T00:18:30.749Z,1.46
2022-11-15T00:21:36.710Z,1.51
2022-11-15T00:24:43.695Z,1.50
2022-11-15T00:27:50.457Z,1.51
2022-11-15T00:31:03.743Z,1.50
2022-11-15T00:34:10.635Z,1.46
2022-11-15T00:37:16.520Z,1.45
2022-11-15T00:40:22.460Z,1.46
2022-11-15T00:43:28.708Z,1.44
2022-11-15T00:46:34.785Z,1.42
2022-11-15T00:49:42.006Z,1.45
2022-11-15T00:52:47.939Z,1.48
2022-11-15T00:55:53.841Z,1.46
2022-11-15T00:59:00.021Z,1.43
2022-11-15T01:02:06.141Z,1.42
2022-11-15T01:05:12.477Z,1.39
2022-11-15T01:08:18.567Z,1.41
2022-11-15T01:11:24.738Z,1.43
2022-11-15T01:14:30.743Z,1.43
2022-11-15T01:17:36.835Z,1.42
2022-11-15T01:20:43.451Z,1.39
2022-11-15T01:23:49.619Z,1.36
2022-11-15T01:26:55.520Z,1.39
2022-11-15T01:30:01.722Z,1.36
2022-11-15T01:33:08.168Z,1.34
2022-11-15T01:36:16.930Z,1.32
2022-11-15T01:39:22.910Z,1.29
2022-11-15T01:42:29.072Z,1.28
2022-11-15T01:45:35.216Z,1.27
2022-11-15T01:48:41.640Z,1.25
2022-11-15T01:51:48.274Z,1.24
2022-11-15T01:54:57.555Z,1.24
2022-11-15T01:58:05.504Z,1.22
2022-11-15T02:01:11.621Z,1.18
2022-11-15T02:04:20.308Z,1.15
2022-11-15T02:07:26.405Z,1.14
2022-11-15T02:10:32.404Z,1.11
2022-11-15T02:13:39.480Z,1.09
2022-11-15T02:17:11.916Z,1.04
2022-11-15T02:20:36.723Z,1.07
2022-11-15T02:23:54.493Z,1.04
2022-11-15T02:27:19.335Z,1.00
2022-11-15T02:30:30.048Z,1.00
2022-11-15T02:33:55.858Z,1.02
2022-11-15T02:37:04.662Z,1.03
2022-11-15T02:40:20.223Z,0.98
2022-11-15T02:43:56.696Z,0.95
2022-11-15T02:47:16.451Z,0.90
2022-11-15T02:50:25.506Z,0.83
2022-11-15T02:53:31.474Z,0.82
2022-11-15T02:56:37.488Z,0.77
2022-11-15T02:59:46.050Z,0.75
2022-11-15T03:03:21.588Z,0.76
2022-11-15T03:06:30.233Z,0.76
2022-11-15T03:09:56.270Z,0.80
2022-11-15T03:13:05.207Z,0.80
2022-11-15T03:16:30.276Z,0.77
2022-11-15T03:19:46.851Z,0.69
2022-11-15T03:22:54.527Z,0.65
2022-11-15T03:26:01.873Z,0.65
2022-11-15T03:29:14.697Z,0.64
2022-11-15T03:32:24.031Z,0.64
2022-11-15T03:35:33.812Z,0.68
2022-11-15T03:38:39.951Z,0.69
2022-11-15T03:41:58.468Z,0.66
2022-11-15T03:45:12.419Z,0.65
2022-11-15T03:48:29.353Z,0.68
2022-11-15T03:51:35.086Z,0.68
2022-11-15T03:54:51.007Z,0.67
2022-11-15T03:57:59.564Z,0.68
2022-11-15T04:01:05.935Z,0.63
2022-11-15T04:04:12.339Z,0.61
2022-11-15T04:07:18.682Z,0.59
2022-11-15T04:10:25.098Z,0.58
2022-11-15T04:13:32.071Z,0.58
2022-11-15T04:16:43.529Z,0.61
2022-11-15T04:20:09.401Z,0.58
2022-11-15T04:23:35.669Z,0.52
2022-11-15T04:26:42.945Z,0.46
2022-11-15T04:29:49.669Z,0.48
2022-11-15T04:32:55.807Z,0.53
2022-11-15T04:36:25.573Z,0.54
2022-11-15T04:39:31.212Z,0.56
2022-11-15T04:42:37.149Z,0.56
2022-11-15T04:45:42.979Z,0.56
2022-11-15T04:48:59.263Z,0.52
2022-11-15T04:52:06.271Z,0.51
2022-11-15T04:55:12.765Z,0.52
2022-11-15T04:58:19.024Z,0.54
2022-11-15T05:01:25.458Z,0.53
2022-11-15T05:04:31.955Z,0.53
2022-11-15T05:07:38.341Z,0.54
2022-11-15T05:10:44.506Z,0.57
2022-11-15T05:13:51.151Z,0.60
2022-11-15T05:16:57.525Z,0.61
2022-11-15T05:20:04.326Z,0.65
2022-11-15T05:23:10.520Z,0.69
2022-11-15T05:26:18.602Z,0.75
2022-11-15T05:29:24.569Z,0.80
2022-11-15T05:32:30.615Z,0.79
2022-11-15T05:35:40.250Z,0.84
2022-11-15T05:38:50.910Z,0.82
2022-11-15T05:42:00.994Z,0.85
2022-11-15T05:45:07.740Z,0.91
2022-11-15T05:48:14.811Z,0.98
2022-11-15T05:51:22.231Z,1.12
2022-11-15T05:54:28.206Z,1.07
2022-11-15T05:57:35.287Z,1.02
2022-11-15T06:00:41.567Z,1.02
2022-11-15T06:03:47.659Z,1.13
2022-11-15T06:06:54.004Z,1.19
2022-11-15T06:10:00.211Z,1.28
2022-11-15T06:13:06.343Z,1.32
2022-11-15T06:16:12.422Z,1.39
2022-11-15T06:19:18.788Z,1.41
2022-11-15T06:22:24.963Z,1.45
2022-11-15T06:25:31.661Z,1.48
2022-11-15T06:28:37.986Z,1.51
2022-11-15T06:31:44.062Z,1.46
2022-11-15T06:34:50.016Z,1.37
2022-11-15T06:37:56.095Z,1.35
2022-11-15T06:41:06.377Z,1.34
2022-11-15T06:44:12.248Z,1.42
2022-11-15T06:47:18.332Z,1.50
2022-11-15T06:50:24.464Z,1.57
2022-11-15T06:53:31.193Z,1.60
2022-11-15T06:56:37.489Z,1.56
2022-11-15T06:59:43.515Z,1.58
2022-11-15T07:02:52.184Z,1.77
2022-11-15T07:06:04.220Z,2.03
2022-11-15T07:09:13.130Z,2.21
2022-11-15T07:12:18.976Z,2.26
2022-11-15T07:15:25.658Z,2.29
2022-11-15T07:18:31.635Z,2.28
2022-11-15T07:21:37.753Z,2.27
2022-11-15T07:24:43.928Z,2.24
2022-11-15T07:28:01.685Z,2.26
2022-11-15T07:31:08.715Z,2.23
2022-11-15T07:34:14.419Z,2.29
2022-11-15T07:37:20.314Z,2.43
2022-11-15T07:40:30.200Z,2.53
2022-11-15T07:43:36.495Z,2.51
2022-11-15T07:46:42.268Z,2.57
2022-11-15T07:49:48.386Z,2.62
2022-11-15T07:52:55.081Z,2.66
2022-11-15T07:56:00.967Z,2.61
2022-11-15T07:59:06.824Z,2.59
2022-11-15T08:02:12.912Z,2.63
2022-11-15T08:05:19.032Z,2.67
2022-11-15T08:08:24.867Z,2.73
2022-11-15T08:11:31.096Z,2.75
2022-11-15T08:14:36.996Z,2.74
2022-11-15T08:17:43.257Z,2.75
2022-11-15T08:20:49.230Z,2.83
2022-11-15T08:23:55.108Z,2.89
2022-11-15T08:27:01.341Z,3.00
2022-11-15T08:30:08.441Z,3.15
2022-11-15T08:33:15.076Z,3.32
2022-11-15T08:36:21.247Z,3.38
2022-11-15T08:39:27.288Z,3.41
2022-11-15T08:42:33.515Z,3.27
2022-11-15T08:45:39.762Z,3.21
2022-11-15T08:48:45.943Z,3.31
2022-11-15T08:51:51.871Z,3.46
2022-11-15T08:54:57.588Z,3.68
2022-11-15T08:58:03.518Z,3.90
2022-11-15T09:01:18.662Z,3.98
2022-11-15T09:04:25.079Z,3.99
2022-11-15T09:07:31.830Z,3.88
2022-11-15T09:10:38.321Z,3.84
2022-11-15T09:13:44.472Z,3.84
2022-11-15T09:16:50.492Z,3.93
2022-11-15T09:19:56.518Z,3.96
2022-11-15T09:23:03.276Z,3.88
2022-11-15T09:26:09.545Z,3.89
2022-11-15T09:29:15.695Z,3.87
2022-11-15T09:32:23.300Z,3.96
2022-11-15T09:35:29.557Z,3.97
2022-11-15T09:38:35.983Z,3.92
2022-11-15T09:41:57.787Z,3.88
2022-11-15T09:45:14.270Z,3.82
2022-11-15T09:48:20.350Z,3.79
2022-11-15T09:51:30.943Z,3.81
2022-11-15T09:54:51.469Z,3.80
2022-11-15T09:57:46.176Z,3.76
2022-11-15T10:00:46.385Z,3.72
2022-11-15T10:03:36.380Z,3.63
2022-11-15T10:06:24.977Z,3.59
2022-11-15T10:09:23.878Z,3.55
2022-11-15T10:12:13.851Z,3.54
2022-11-15T10:15:03.711Z,3.55
2022-11-15T10:18:11.347Z,3.57
2022-11-15T10:21:00.977Z,3.50
2022-11-15T10:23:48.880Z,3.47
2022-11-15T10:26:36.400Z,3.46
2022-11-15T10:29:27.230Z,3.41
2022-11-15T10:32:15.949Z,3.42
2022-11-15T10:35:17.151Z,3.37
2022-11-15T10:38:08.725Z,3.32
2022-11-15T10:41:07.135Z,3.27
2022-11-15T10:44:12.513Z,3.26
2022-11-15T10:47:00.060Z,3.26
2022-11-15T10:49:54.754Z,3.25
2022-11-15T10:52:46.502Z,3.21
2022-11-15T10:55:35.120Z,3.18
2022-11-15T10:58:25.512Z,3.13
2022-11-15T11:01:18.093Z,3.07
2022-11-15T11:04:05.723Z,3.12
2022-11-15T11:06:54.479Z,3.19
2022-11-15T11:09:44.687Z,3.23
2022-11-15T11:12:33.841Z,3.26
2022-11-15T11:15:23.645Z,3.30
2022-11-15T11:18:23.160Z,3.30
2022-11-15T11:21:15.599Z,3.29
2022-11-15T11:24:09.458Z,3.29
2022-11-15T11:27:05.822Z,3.30
2022-11-15T11:29:53.296Z,3.32
2022-11-15T11:32:59.689Z,3.36
2022-11-15T11:35:47.125Z,3.31
2022-11-15T11:38:50.990Z,3.22
2022-11-15T11:41:45.129Z,3.18
2022-11-15T11:44:38.761Z,3.13
2022-11-15T11:47:32.187Z,3.10
2022-11-15T11:50:21.062Z,3.14
2022-11-15T11:53:27.262Z,3.15
2022-11-15T11:56:22.692Z,3.06
2022-11-15T11:59:18.916Z,3.00
2022-11-15T12:02:20.116Z,2.91
2022-11-15T12:05:16.928Z,2.90
2022-11-15T12:08:12.451Z,2.83
2022-11-15T12:11:11.425Z,2.78
2022-11-15T12:14:04.699Z,2.73
2022-11-15T12:16:52.175Z,2.69
2022-11-15T12:19:40.532Z,2.70
2022-11-15T12:22:40.026Z,2.67
2022-11-15T12:25:33.530Z,2.59
2022-11-15T12:28:27.910Z,2.49
2022-11-15T12:31:18.136Z,2.41
2022-11-15T12:34:14.969Z,2.33
2022-11-15T12:37:04.666Z,2.27
2022-11-15T12:40:12.505Z,2.23
2022-11-15T12:43:27.803Z,2.18
2022-11-15T12:46:22.634Z,2.15
2022-11-15T12:49:22.277Z,2.15
2022-11-15T12:52:10.347Z,2.10
2022-11-15T12:55:02.054Z,2.06
2022-11-15T12:57:52.453Z,2.01
2022-11-15T13:00:40.256Z,1.97
2022-11-15T13:03:28.638Z,1.98
2022-11-15T13:06:35.741Z,1.98
2022-11-15T13:09:46.468Z,1.97
2022-11-15T13:12:40.008Z,1.92
2022-11-15T13:15:30.618Z,1.86
2022-11-15T13:18:33.082Z,1.74
2022-11-15T13:21:42.471Z,1.62
2022-11-15T13:24:30.786Z,1.61
2022-11-15T13:27:20.558Z,1.60
2022-11-15T13:30:15.463Z,1.58
2022-11-15T13:33:09.538Z,1.53
2022-11-15T13:35:58.936Z,1.43
2022-11-15T13:38:54.675Z,1.37
2022-11-15T13:41:49.377Z,1.32
2022-11-15T13:44:36.790Z,1.29
2022-11-15T13:47:27.856Z,1.22
2022-11-15T13:50:15.742Z,1.12
2022-11-15T13:53:04.733Z,1.01
2022-11-15T13:55:52.843Z,0.95
2022-11-15T13:58:40.889Z,0.90
2022-11-15T14:01:32.013Z,0.90
2022-11-15T14:04:21.400Z,0.90
2022-11-15T14:07:17.217Z,0.89
2022-11-15T14:10:29.195Z,0.90
2022-11-15T14:13:29.992Z,0.92
2022-11-15T14:16:21.903Z,0.90
2022-11-15T14:19:21.402Z,0.88
2022-11-15T14:22:10.499Z,0.85
2022-11-15T14:25:14.107Z,0.84
2022-11-15T14:28:16.513Z,0.83
2022-11-15T14:31:08.036Z,0.83
2022-11-15T14:33:55.614Z,0.86
2022-11-15T14:36:43.038Z,0.92
2022-11-15T14:39:30.518Z,0.97
2022-11-15T14:42:18.495Z,1.01
2022-11-15T14:45:13.675Z,0.98
2022-11-15T14:48:09.969Z,1.01
2022-11-15T14:50:58.461Z,1.01
2022-11-15T14:53:52.626Z,1.01
2022-11-15T14:56:40.334Z,0.98
2022-11-15T14:59:27.988Z,0.96
2022-11-15T15:02:26.355Z,0.97
2022-11-15T15:06:16.579Z,0.89
2022-11-15T15:09:19.839Z,0.84
2022-11-15T15:12:59.808Z,0.82
2022-11-15T15:30:07.282Z,0.83
2022-11-15T16:19:17.504Z,0.80
2022-11-15T16:22:05.211Z,0.76
2022-11-15T16:24:52.685Z,0.72
2022-11-15T16:27:45.813Z,0.70
2022-11-15T16:30:34.513Z,0.69
2022-11-15T16:33:21.993Z,0.71
2022-11-15T16:36:19.276Z,0.76
2022-11-15T16:39:07.523Z,0.82
2022-11-15T16:41:55.102Z,0.86
2022-11-15T16:44:42.506Z,0.88
2022-11-15T16:47:29.884Z,0.93
2022-11-15T16:50:25.286Z,0.97
2022-11-15T16:53:12.880Z,0.98
2022-11-15T16:56:00.359Z,0.98
2022-11-15T16:58:47.817Z,0.98
2022-11-15T17:01:36.609Z,0.98
2022-11-15T17:04:24.234Z,1.03
2022-11-15T17:07:11.822Z,1.03
2022-11-15T17:09:59.352Z,1.04
2022-11-15T17:12:46.851Z,1.06
2022-11-15T17:15:34.221Z,1.05
2022-11-15T17:18:21.592Z,1.06
2022-11-15T17:21:12.210Z,1.09
2022-11-15T17:24:00.063Z,1.08
2022-11-15T17:26:48.802Z,1.05
2022-11-15T17:29:36.606Z,1.02
2022-11-15T17:32:24.281Z,1.00
2022-11-15T17:35:15.645Z,0.98
2022-11-15T17:38:03.391Z,0.98
2022-11-15T17:41:00.193Z,0.90
2022-11-15T17:43:48.307Z,0.87
2022-11-15T17:46:36.479Z,0.83
2022-11-15T17:49:23.873Z,0.86
2022-11-15T17:52:11.382Z,0.86
2022-11-15T17:54:58.786Z,0.91
2022-11-15T17:57:46.203Z,0.97
2022-11-15T18:00:33.971Z,1.01
2022-11-15T18:03:21.371Z,1.04
2022-11-15T18:06:09.468Z,1.06
2022-11-15T18:08:57.226Z,1.07
2022-11-15T18:11:50.555Z,1.02
2022-11-15T18:14:37.997Z,1.01
2022-11-15T18:17:25.665Z,1.03
2022-11-15T18:20:13.254Z,1.05
2022-11-15T18:23:00.650Z,1.08
2022-11-15T18:25:51.530Z,1.10
2022-11-15T18:28:39.888Z,1.10
2022-11-15T18:31:28.288Z,1.09
2022-11-15T18:34:15.654Z,1.07
2022-11-15T18:37:03.476Z,1.01
2022-11-15T18:39:53.860Z,1.00
2022-11-15T18:42:41.566Z,0.99
2022-11-15T18:45:29.232Z,1.00
2022-11-15T18:48:16.634Z,1.01
2022-11-15T18:51:05.493Z,1.03
2022-11-15T18:53:56.986Z,1.03
2022-11-15T18:56:45.651Z,1.02
2022-11-15T18:59:33.118Z,1.00
2022-11-15T19:02:20.570Z,0.98
2022-11-15T19:05:08.222Z,0.94
2022-11-15T19:07:55.606Z,0.92
2022-11-15T19:10:42.966Z,0.89
2022-11-15T19:13:30.657Z,0.84
2022-11-15T19:16:18.267Z,0.79
2022-11-15T19:19:07.945Z,0.80
2022-11-15T19:21:57.193Z,0.85
2022-11-15T19:24:44.569Z,0.81
2022-11-15T19:27:35.611Z,0.74
2022-11-15T19:30:25.420Z,0.73
2022-11-15T19:33:12.783Z,0.72
2022-11-15T19:36:02.909Z,0.71
2022-11-15T19:38:50.439Z,0.70
2022-11-15T19:41:38.667Z,0.73
2022-11-15T19:44:27.315Z,0.74
2022-11-15T19:47:14.663Z,0.75
2022-11-15T19:50:02.106Z,0.79
2022-11-15T19:52:51.389Z,0.80
2022-11-15T19:55:38.857Z,0.77
2022-11-15T19:58:28.150Z,0.73
2022-11-15T20:01:23.291Z,0.68
2022-11-15T20:04:10.721Z,0.61
2022-11-15T20:06:58.145Z,0.56
2022-11-15T20:09:45.615Z,0.55
2022-11-15T20:12:33.000Z,0.52
2022-11-15T20:15:20.765Z,0.50
2022-11-15T20:18:09.017Z,0.54
2022-11-15T20:20:59.733Z,0.54
2022-11-15T20:23:47.864Z,0.45
2022-11-15T20:26:35.700Z,0.41
2022-11-15T20:29:23.501Z,0.37
2022-11-15T20:32:11.598Z,0.40
2022-11-15T20:34:58.968Z,0.44
2022-11-15T20:37:46.365Z,0.48
2022-11-15T20:40:34.122Z,0.52
2022-11-15T20:43:21.521Z,0.55
2022-11-15T20:46:09.651Z,0.54
2022-11-15T20:48:57.104Z,0.51
2022-11-15T20:51:44.438Z,0.53
2022-11-15T20:54:31.813Z,0.53
2022-11-15T20:57:19.184Z,0.57
2022-11-15T21:00:07.098Z,0.59
2022-11-15T21:02:54.459Z,0.62
2022-11-15T21:05:42.731Z,0.60
2022-11-15T21:08:50.150Z,0.60
2022-11-15T21:11:56.068Z,0.52
2022-11-15T21:14:48.999Z,0.47
2022-11-15T21:17:36.465Z,0.43
2022-11-15T21:20:23.863Z,0.42
2022-11-15T21:23:11.870Z,0.48
2022-11-15T21:25:59.436Z,0.51
2022-11-15T21:28:46.786Z,0.52
2022-11-15T21:31:34.246Z,0.53
2022-11-15T21:34:21.737Z,0.53
2022-11-15T21:37:10.607Z,0.55
2022-11-15T21:39:57.970Z,0.59
2022-11-15T21:42:45.447Z,0.62
2022-11-15T21:45:32.841Z,0.61
2022-11-15T21:48:20.210Z,0.63
2022-11-15T21:51:10.029Z,0.63
2022-11-15T21:53:57.649Z,0.63
2022-11-15T21:56:45.092Z,0.58
2022-11-15T21:59:32.516Z,0.55
2022-11-15T22:02:21.263Z,0.51
2022-11-15T22:05:08.836Z,0.44
2022-11-15T22:07:56.271Z,0.40
2022-11-15T22:10:46.689Z,0.37
2022-11-15T22:13:34.217Z,0.35
2022-11-15T22:16:21.779Z,0.33
2022-11-15T22:19:09.313Z,0.31
2022-11-15T22:21:57.058Z,0.31
2022-11-15T22:24:44.623Z,0.33
2022-11-15T22:27:32.134Z,0.34
2022-11-15T22:30:19.975Z,0.34
2022-11-15T22:33:07.705Z,0.33
2022-11-15T22:35:55.336Z,0.33
2022-11-15T22:38:42.857Z,0.37
2022-11-15T22:41:30.369Z,0.38
2022-11-15T22:44:17.858Z,0.39
2022-11-15T22:47:05.471Z,0.37
2022-11-15T22:49:52.989Z,0.35
2022-11-15T22:52:40.500Z,0.31
2022-11-15T22:55:27.948Z,0.31
2022-11-15T22:58:15.447Z,0.32
2022-11-15T23:01:04.255Z,0.33
2022-11-15T23:03:51.825Z,0.35
2022-11-15T23:06:39.332Z,0.32
2022-11-15T23:09:26.971Z,0.23
2022-11-15T23:12:33.012Z,0.11
2022-11-15T23:15:20.452Z,-0.05
2022-11-15T23:18:07.958Z,-0.16
2022-11-15T23:20:55.633Z,-0.22
2022-11-15T23:23:43.096Z,-0.27
2022-11-15T23:26:31.010Z,-0.31
2022-11-15T23:29:19.786Z,-0.30
2022-11-15T23:32:26.167Z,-0.26
2022-11-15T23:35:13.641Z,-0.27
2022-11-15T23:38:01.193Z,-0.28
2022-11-15T23:40:52.174Z,-0.26
2022-11-15T23:43:39.692Z,-0.20
2022-11-15T23:46:27.504Z,-0.15
2022-11-15T23:49:14.942Z,-0.13
2022-11-15T23:52:02.478Z,-0.08
2022-11-15T23:54:50.188Z,-0.01
2022-11-15T23:57:37.702Z,0.05
